createdAt,value
2024-03-05T00:09:32.419Z,7.79
2024-03-05T00:19:34.954Z,7.39
2024-03-05T00:29:37.683Z,7.27
2024-03-05T00:39:40.095Z,7.14
2024-03-05T00:49:42.688Z,7.00
2024-03-05T00:59:46.427Z,6.91
2024-03-05T01:09:50.882Z,6.84
2024-03-05T01:19:53.706Z,6.67
2024-03-05T01:29:56.305Z,6.56
2024-03-05T01:39:58.811Z,6.37
2024-03-05T01:50:03.121Z,6.20
2024-03-05T02:00:10.908Z,5.85
2024-03-05T02:10:15.023Z,5.77
2024-03-05T02:20:18.545Z,5.65
2024-03-05T02:30:21.740Z,5.50
2024-03-05T02:40:25.664Z,5.46
2024-03-05T02:50:28.240Z,5.79
2024-03-05T03:00:30.831Z,5.54
2024-03-05T03:10:33.323Z,5.63
2024-03-05T03:20:36.107Z,5.56
2024-03-05T03:30:38.547Z,5.42
2024-03-05T03:40:44.140Z,5.38
2024-03-05T03:50:46.667Z,5.16
2024-03-05T04:00:50.441Z,4.75
2024-03-05T04:10:53.007Z,4.45
2024-03-05T04:20:55.582Z,4.52
2024-03-05T04:30:58.481Z,4.43
2024-03-05T04:41:01.009Z,4.29
2024-03-05T04:51:03.733Z,4.07
2024-03-05T05:01:06.369Z,3.85
2024-03-05T05:11:09.195Z,3.39
2024-03-05T05:21:11.680Z,3.43
2024-03-05T05:31:27.696Z,3.31
2024-03-05T05:41:30.887Z,3.41
2024-03-05T05:51:34.516Z,3.64
2024-03-05T06:01:39.003Z,3.79
2024-03-05T06:11:42.354Z,4.47
2024-03-05T06:21:45.262Z,5.19
2024-03-05T06:31:49.044Z,5.79
2024-03-05T06:41:53.611Z,6.12
2024-03-05T06:52:19.495Z,6.33
2024-03-05T07:02:24.863Z,6.48
2024-03-05T07:12:27.793Z,6.83
2024-03-05T07:22:30.588Z,7.18
2024-03-05T07:32:33.444Z,7.44
2024-03-05T07:42:44.637Z,8.23
2024-03-05T07:52:48.440Z,8.87
2024-03-05T08:02:55.912Z,10.13
2024-03-05T08:12:59.001Z,11.00
2024-03-05T08:23:01.722Z,11.89
2024-03-05T08:33:06.456Z,12.66
2024-03-05T08:43:10.534Z,13.23
2024-03-05T08:53:13.160Z,14.14
2024-03-05T09:03:15.738Z,14.66
2024-03-05T09:13:18.388Z,15.55
2024-03-05T09:23:20.978Z,14.99
2024-03-05T09:33:23.615Z,15.30
2024-03-05T09:43:26.699Z,15.30
2024-03-05T09:53:30.527Z,16.09
2024-03-05T10:03:35.406Z,16.22
2024-03-05T10:13:38.648Z,15.90
2024-03-05T10:23:41.356Z,15.34
2024-03-05T10:33:43.961Z,15.16
2024-03-05T10:43:48.166Z,15.42
2024-03-05T10:53:51.522Z,15.28
2024-03-05T11:03:56.568Z,15.31
2024-03-05T11:14:04.220Z,16.08
2024-03-05T11:24:08.092Z,18.98
2024-03-05T11:34:14.362Z,18.23
2024-03-05T11:44:31.972Z,18.43
2024-03-05T11:54:37.024Z,17.94
2024-03-05T12:04:41.114Z,18.17
2024-03-05T12:14:55.919Z,17.85
2024-03-05T12:24:59.031Z,17.64
2024-03-05T12:35:01.944Z,20.38
2024-03-05T12:45:10.112Z,19.21
2024-03-05T12:55:13.824Z,17.20
2024-03-05T13:05:16.466Z,16.73
2024-03-05T13:15:22.534Z,16.99
2024-03-05T13:25:29.842Z,18.01
2024-03-05T13:35:32.699Z,17.90
2024-03-05T13:45:35.597Z,17.00
2024-03-05T13:55:38.259Z,17.25
2024-03-05T14:05:41.860Z,15.74
2024-03-05T14:15:44.955Z,15.24
2024-03-05T14:25:48.201Z,15.05
2024-03-05T14:35:51.835Z,14.92
2024-03-05T14:45:57.330Z,14.63
2024-03-05T14:56:00.078Z,14.33
2024-03-05T15:06:03.814Z,13.92
2024-03-05T15:16:11.776Z,13.59
2024-03-05T15:26:15.615Z,13.27
2024-03-05T15:36:18.414Z,13.09
2024-03-05T15:46:21.740Z,12.85
2024-03-05T15:56:36.174Z,12.97
2024-03-05T16:06:40.809Z,12.77
2024-03-05T16:16:44.352Z,12.44
2024-03-05T16:26:48.316Z,12.09
2024-03-05T16:36:50.865Z,11.72
2024-03-05T16:46:54.984Z,11.27
2024-03-05T16:56:57.904Z,10.95
2024-03-05T17:07:00.999Z,10.31
2024-03-05T17:17:05.382Z,9.74
2024-03-05T17:27:07.944Z,9.66
2024-03-05T17:37:10.628Z,9.52
2024-03-05T17:47:13.126Z,9.28
2024-03-05T17:57:16.519Z,9.14
2024-03-05T18:07:19.469Z,8.87
2024-03-05T18:17:22.561Z,8.47
2024-03-05T18:27:25.796Z,8.41
2024-03-05T18:37:28.609Z,8.28
2024-03-05T18:47:31.318Z,8.00
2024-03-05T18:57:34.267Z,7.93
2024-03-05T19:07:37.264Z,7.69
2024-03-05T19:17:41.923Z,7.53
2024-03-05T19:27:44.979Z,7.41
2024-03-05T19:37:49.032Z,7.10
2024-03-05T19:47:52.597Z,6.85
2024-03-05T19:57:55.736Z,6.60
2024-03-05T20:07:58.822Z,6.36
2024-03-05T20:18:02.269Z,6.51
2024-03-05T20:28:11.003Z,6.30
2024-03-05T20:38:15.107Z,6.26
2024-03-05T20:48:18.150Z,5.88
2024-03-05T20:58:22.122Z,5.78
2024-03-05T21:08:24.756Z,5.83
2024-03-05T21:18:27.715Z,5.73
2024-03-05T21:28:31.053Z,5.50
2024-03-05T21:38:33.620Z,5.39
2024-03-05T21:48:36.329Z,5.38
2024-03-05T21:58:43.320Z,5.45
2024-03-05T22:08:48.698Z,5.58
2024-03-05T22:18:51.212Z,5.55
2024-03-05T22:28:54.080Z,5.39
2024-03-05T22:38:59.713Z,4.88
2024-03-05T22:49:03.043Z,4.84
2024-03-05T22:59:05.540Z,4.89
2024-03-05T23:09:08.187Z,4.27
2024-03-05T23:19:12.468Z,4.45
2024-03-05T23:29:16.373Z,4.41
2024-03-05T23:39:19.490Z,4.50
2024-03-05T23:49:22.648Z,4.46
2024-03-05T23:59:25.146Z,4.37
